Date,TemperatureHighF,TemperatureAvgF,TemperatureLowF,DewpointHighF,DewpointAvgF,DewpointLowF,HumidityHigh,HumidityAvg,HumidityLow,PressureMaxIn,PressureMinIn,WindSpeedMaxMPH,WindSpeedAvgMPH,GustSpeedMaxMPH,PrecipitationSumIn
2013-3-1,65,62,58,56,50,46,78,68,52,29.97,29.88,9,4,15,0.00
2013-3-2,64,57,52,49,42,35,75,58,44,30.02,29.94,15,7,26,0.00
2013-3-3,60,53,49,45,41,38,76,64,49,30.14,29.95,15,6,25,0.00
2013-3-4,62,53,42,47,38,30,79,58,31,30.20,30.11,11,5,18,0.00
2013-3-5,72,62,50,57,53,45,86,72,56,30.17,30.07,10,3,20,0.00
2013-3-6,76,64,54,63,51,35,91,67,28,30.09,29.93,16,8,28,0.00
2013-3-7,68,58,47,56,46,36,86,64,43,30.17,30.06,11,5,17,0.00
2013-3-8,72,62,54,55,51,46,90,69,41,30.19,30.09,10,3,18,0.00
2013-3-9,72,65,56,57,54,49,86,68,56,30.18,30.09,10,4,19,0.00
2013-3-10,74,70,66,60,56,52,74,63,54,30.15,30.06,13,8,22,0.00
2013-3-11,76,71,68,63,60,58,75,69,57,30.10,29.94,11,7,21,0.00
2013-3-12,77,74,70,70,66,62,84,76,68,29.98,29.90,12,7,23,0.00
2013-3-13,72,65,57,65,56,47,91,73,44,30.11,29.96,10,5,21,0.00
2013-3-14,67,60,54,53,48,42,84,65,41,30.19,30.08,11,5,18,0.00
2013-3-15,69,61,52,55,51,45,79,68,55,30.24,30.14,9,4,16,0.00
2013-3-16,73,64,55,56,54,51,92,70,50,30.18,30.08,11,3,17,0.00
2013-3-17,75,68,59,62,58,54,88,72,58,30.14,30.02,11,4,22,0.00
2013-3-18,77,72,67,69,65,61,93,80,71,30.06,29.95,12,5,23,0.33
2013-3-19,77,72,68,69,67,65,93,86,68,30.00,29.83,11,3,22,0.33
2013-3-20,79,72,65,70,65,59,96,81,57,29.96,29.79,11,3,25,0.01
2013-3-21,74,66,59,61,55,48,90,70,43,29.93,29.81,10,4,17,0.01
2013-3-22,75,67,55,69,60,52,93,78,59,30.00,29.89,11,4,19,0.00
2013-3-23,83,76,71,75,71,69,93,84,68,29.98,29.78,13,5,23,0.00
2013-3-24,88,79,72,73,71,67,93,79,56,29.88,29.67,25,10,38,0.21
2013-3-25,78,73,66,72,59,36,93,66,31,29.97,29.73,11,6,17,0.22
2013-3-26,66,60,53,43,38,31,59,44,28,30.20,29.97,15,8,24,0.00
2013-3-27,65,56,46,48,42,32,71,59,44,30.24,30.16,11,5,21,0.00
2013-3-28,68,60,49,51,45,34,77,59,30,30.26,30.16,10,4,16,0.00
2013-3-29,71,64,55,54,50,45,74,61,49,30.28,30.19,10,3,18,0.00
2013-3-30,72,68,62,56,52,49,69,58,45,30.26,30.15,10,3,17,0.00
2013-3-31,76,71,60,65,60,-100,86,71,63,30.18,30.03,13,6,24,0.00